Time;durP1;ratioP1;P1;durP2;ratioP2;P2;SDS_P1;SDS_P2;PMS_P1;PMS_P2;Temp;Humidity;BMP_temperature;BMP_pressure;BME280_temperature;BME280_humidity;BME280_pressure;Samples;Min_cycle;Max_cycle;Signal;HPM_P1;HPM_P2
2022/06/02 00:02:37;;;;;;;45.97;26.58;;;;;;;6.59;95.66;101883.81;4937789;29;20024;-46
2022/06/02 00:05:12;;;;;;;44.08;25.63;;;;;;;6.52;95.55;101885.91;4937860;29;20074;-45
2022/06/02 00:07:58;;;;;;;48.15;26.17;;;;;;;6.52;96.42;101879.13;4937824;29;20174;-47
2022/06/02 00:10:40;;;;;;;45.30;24.70;;;;;;;6.42;95.50;101869.09;4937597;29;20032;-47
2022/06/02 00:13:22;;;;;;;40.03;22.65;;;;;;;6.39;95.80;101882.56;4938016;29;20035;-46
2022/06/02 00:15:54;;;;;;;57.72;29.13;;;;;;;6.41;97.21;101893.78;4937411;29;20091;-45
2022/06/02 00:18:24;;;;;;;62.60;33.13;;;;;;;6.46;98.06;101891.53;4937775;29;20075;-44
2022/06/02 00:20:55;;;;;;;67.75;33.97;;;;;;;6.52;98.95;101891.00;4937654;29;20083;-44
2022/06/02 00:23:38;;;;;;;71.63;34.85;;;;;;;6.51;99.55;101892.72;4937286;29;20028;-47
2022/06/02 00:26:38;;;;;;;68.60;34.63;;;;;;;6.53;99.55;101890.22;4937177;29;20053;-45
2022/06/02 00:29:20;;;;;;;62.38;29.98;;;;;;;6.52;99.04;101891.94;4937691;29;20028;-48
2022/06/02 00:32:05;;;;;;;64.00;32.88;;;;;;;6.53;99.65;101892.78;4937359;29;20028;-44
2022/06/02 00:34:39;;;;;;;70.95;33.20;;;;;;;6.55;99.42;101902.34;4937343;29;20114;-45
2022/06/02 00:37:19;;;;;;;51.50;28.15;;;;;;;6.48;98.18;101901.88;4937189;29;20083;-45
2022/06/02 00:39:47;;;;;;;44.65;25.25;;;;;;;6.41;96.82;101900.59;4937290;29;20055;-44
2022/06/02 00:42:43;;;;;;;48.13;26.67;;;;;;;6.33;97.04;101905.22;4937467;29;20026;-44
2022/06/02 00:45:12;;;;;;;49.63;26.65;;;;;;;6.22;96.89;101901.09;4936920;29;20039;-45
2022/06/02 00:47:48;;;;;;;48.40;26.95;;;;;;;6.13;96.70;101900.50;4937051;29;20042;-44
2022/06/02 00:50:34;;;;;;;52.17;29.25;;;;;;;6.07;96.79;101891.63;4937163;29;20388;-45
2022/06/02 00:53:12;;;;;;;44.20;23.80;;;;;;;5.99;96.04;101903.06;4937100;29;20114;-45
2022/06/02 00:59:12;;;;;;;48.40;25.25;;;;;;;5.88;96.50;101898.88;4936573;29;20047;-46
2022/06/02 01:01:37;;;;;;;47.13;25.65;;;;;;;5.80;96.13;101900.94;4936636;29;20490;-46
2022/06/02 01:04:11;;;;;;;46.03;26.30;;;;;;;5.75;96.45;101899.75;4937200;29;20031;-44
2022/06/02 01:06:46;;;;;;;52.13;26.50;;;;;;;5.68;96.51;101895.00;4936429;29;20131;-45
2022/06/02 01:09:17;;;;;;;59.45;30.40;;;;;;;5.73;97.74;101899.66;4936967;29;20043;-46
2022/06/02 01:11:59;;;;;;;58.58;30.15;;;;;;;5.72;98.05;101907.19;4936287;29;20054;-44
2022/06/02 01:14:52;;;;;;;65.90;31.85;;;;;;;5.75;98.59;101897.19;4936723;29;20031;-45
2022/06/02 01:17:54;;;;;;;52.80;29.02;;;;;;;5.72;98.28;101900.44;4936661;29;20868;-49
2022/06/02 01:20:43;;;;;;;52.35;28.20;;;;;;;5.68;97.69;101895.00;4935962;29;20060;-48
2022/06/02 01:23:17;;;;;;;52.63;27.00;;;;;;;5.58;96.77;101899.50;4936565;29;20110;-47
2022/06/02 01:26:06;;;;;;;55.30;28.05;;;;;;;5.58;97.07;101899.50;4936106;29;20099;-46
2022/06/02 01:28:47;;;;;;;45.58;25.08;;;;;;;5.50;96.37;101903.22;4936284;29;20035;-48
2022/06/02 01:31:49;;;;;;;57.15;27.38;;;;;;;5.49;97.18;101909.13;4936722;29;20028;-45
2022/06/02 01:34:33;;;;;;;59.42;29.08;;;;;;;5.43;97.18;101903.59;4935958;29;20031;-44
2022/06/02 01:37:11;;;;;;;73.30;35.50;;;;;;;5.52;99.33;101906.75;4936153;29;20031;-46
2022/06/02 01:39:51;;;;;;;82.70;39.67;;;;;;;5.64;100.00;101904.13;4935983;29;20040;-48
2022/06/02 01:42:42;;;;;;;76.05;37.67;;;;;;;5.66;100.00;101896.59;4936249;29;20036;-44
2022/06/02 01:45:26;;;;;;;74.75;35.90;;;;;;;5.59;99.57;101906.41;4932385;29;20044;-44
2022/06/02 01:48:10;;;;;;;67.63;34.17;;;;;;;5.50;98.65;101904.88;4935890;29;20036;-48
2022/06/02 01:50:53;;;;;;;80.05;35.90;;;;;;;5.41;97.95;101897.47;4935974;29;20042;-48
2022/06/02 01:53:36;;;;;;;54.80;28.58;;;;;;;5.35;97.98;101894.53;4936215;29;20070;-46
2022/06/02 01:56:25;;;;;;;55.22;27.80;;;;;;;5.25;97.38;101898.13;4935884;29;20440;-48
2022/06/02 01:59:17;;;;;;;53.38;28.30;;;;;;;5.21;97.51;101897.00;4936085;29;20408;-45
2022/06/02 02:02:03;;;;;;;55.95;29.17;;;;;;;5.14;97.68;101892.28;4935439;29;20436;-46
2022/06/02 02:04:51;;;;;;;60.75;30.42;;;;;;;5.10;98.29;101891.19;4935843;29;20027;-44
2022/06/02 02:07:32;;;;;;;63.58;30.98;;;;;;;5.06;98.12;101890.84;4935703;29;20060;-46
2022/06/02 02:10:19;;;;;;;67.40;33.20;;;;;;;5.06;98.96;101891.75;4935161;29;20028;-45
2022/06/02 02:13:20;;;;;;;86.30;37.72;;;;;;;5.11;100.00;101894.59;4936060;29;20032;-48
2022/06/02 02:16:01;;;;;;;87.57;41.78;;;;;;;5.19;100.00;101898.59;4935432;29;20051;-45
2022/06/02 02:18:49;;;;;;;101.18;44.28;;;;;;;5.26;100.00;101907.56;4935492;29;20023;-47
2022/06/02 02:21:24;;;;;;;104.30;46.50;;;;;;;5.38;100.00;101910.06;4935603;29;20059;-45
2022/06/02 02:24:14;;;;;;;93.45;43.00;;;;;;;5.37;100.00;101909.19;4935369;29;20050;-48
2022/06/02 02:27:02;;;;;;;101.03;45.00;;;;;;;5.41;100.00;101912.81;4935432;29;20543;-45
2022/06/02 02:30:10;;;;;;;101.07;43.90;;;;;;;5.47;100.00;101917.47;4935230;29;20031;-45
2022/06/02 02:33:13;;;;;;;97.50;44.58;;;;;;;5.49;100.00;101914.22;4914209;29;20029;-48
2022/06/02 02:35:54;;;;;;;92.82;43.83;;;;;;;5.50;100.00;101910.91;4935699;29;20087;-46
2022/06/02 02:38:33;;;;;;;97.30;42.05;;;;;;;5.52;100.00;101919.53;4935488;29;20067;-46
2022/06/02 02:41:03;;;;;;;95.20;43.00;;;;;;;5.53;100.00;101916.22;4935544;29;20031;-47
2022/06/02 02:43:38;;;;;;;76.55;38.22;;;;;;;5.41;100.00;101913.72;4935014;29;20028;-48
2022/06/02 02:46:25;;;;;;;92.60;42.08;;;;;;;5.47;100.00;101917.47;4935461;29;20028;-47
2022/06/02 02:49:00;;;;;;;104.25;45.13;;;;;;;5.45;100.00;101919.94;4935665;29;20083;-47
2022/06/02 02:51:38;;;;;;;105.97;46.42;;;;;;;5.46;100.00;101919.13;4934912;29;20127;-47
2022/06/02 02:54:14;;;;;;;102.80;45.88;;;;;;;5.52;100.00;101927.22;4935158;29;20404;-49
2022/06/02 02:56:45;;;;;;;96.40;44.13;;;;;;;5.43;100.00;101921.47;4935561;29;20159;-47
2022/06/02 02:59:43;;;;;;;74.15;37.45;;;;;;;5.35;100.00;101927.75;4934793;29;20078;-49
2022/06/02 03:02:23;;;;;;;73.72;37.17;;;;;;;5.26;100.00;101933.13;4935382;29;20032;-49
2022/06/02 03:04:58;;;;;;;63.85;32.83;;;;;;;5.14;99.59;101929.72;4935099;29;20031;-45
2022/06/02 03:07:24;;;;;;;65.18;33.83;;;;;;;5.05;99.19;101929.97;4935095;29;20032;-45
2022/06/02 03:10:04;;;;;;;77.82;39.47;;;;;;;5.06;99.63;101931.72;4935510;29;20046;-46
2022/06/02 03:12:45;;;;;;;78.43;39.22;;;;;;;5.03;100.00;101936.63;4934694;29;20059;-48
2022/06/02 03:15:22;;;;;;;75.68;38.00;;;;;;;4.99;100.00;101935.53;4935192;29;20099;-44
2022/06/02 03:18:15;;;;;;;66.90;34.60;;;;;;;4.92;99.56;101938.47;4935402;29;20031;-47
2022/06/02 03:20:59;;;;;;;74.07;35.72;;;;;;;4.90;99.82;101946.00;4937416;29;20058;-47
2022/06/02 03:23:43;;;;;;;74.25;35.85;;;;;;;4.86;99.92;101938.91;4938786;29;20051;-48
2022/06/02 03:26:46;;;;;;;81.55;37.85;;;;;;;4.88;100.00;101942.47;4938176;29;20467;-48
2022/06/02 03:29:56;;;;;;;71.43;35.55;;;;;;;4.83;100.00;101948.91;4938458;29;20047;-46
2022/06/02 03:32:40;;;;;;;67.18;34.50;;;;;;;4.77;99.71;101951.03;4938040;29;20032;-49
2022/06/02 03:35:33;;;;;;;71.72;35.47;;;;;;;4.73;99.60;101951.59;4938479;29;20055;-44
2022/06/02 03:38:25;;;;;;;64.25;33.33;;;;;;;4.67;99.20;101952.03;4938564;29;20395;-47
2022/06/02 03:41:31;;;;;;;65.50;32.58;;;;;;;4.61;98.98;101962.69;4938229;29;20028;-45
2022/06/02 03:44:15;;;;;;;65.28;33.25;;;;;;;4.55;99.07;101962.25;4938369;29;20427;-45
2022/06/02 03:46:46;;;;;;;72.88;36.67;;;;;;;4.52;99.24;101962.03;4937892;29;20067;-45
2022/06/02 03:49:56;;;;;;;81.25;38.97;;;;;;;4.56;100.00;101961.47;4938132;29;20040;-47
2022/06/02 03:52:47;;;;;;;89.15;41.05;;;;;;;4.61;100.00;101965.25;4936952;29;20040;-47
2022/06/02 03:55:27;;;;;;;92.00;41.97;;;;;;;4.68;100.00;101975.91;4937551;29;20028;-47
2022/06/02 03:58:16;;;;;;;104.60;45.28;;;;;;;4.75;100.00;101971.34;4938349;29;20424;-46
2022/06/02 04:00:43;;;;;;;110.72;46.72;;;;;;;4.84;100.00;101976.22;4937580;29;20062;-45
2022/06/02 04:03:11;;;;;;;120.72;50.15;;;;;;;4.90;100.00;101978.31;4938076;29;20087;-47
2022/06/02 04:05:56;;;;;;;126.60;52.22;;;;;;;4.97;100.00;101977.09;4937962;29;20035;-48
2022/06/02 04:08:41;;;;;;;138.27;54.63;;;;;;;5.07;100.00;101979.50;4937542;29;20062;-46
2022/06/02 04:11:12;;;;;;;141.80;55.05;;;;;;;5.14;100.00;101984.28;4937711;29;20123;-46
2022/06/02 04:13:49;;;;;;;152.27;62.22;;;;;;;5.24;100.00;101984.13;4937956;29;20036;-45
2022/06/02 04:16:38;;;;;;;155.93;59.00;;;;;;;5.33;100.00;101983.00;4937352;29;20035;-46
2022/06/02 04:22:09;;;;;;;156.02;60.70;;;;;;;5.44;100.00;101987.19;4949641;28;20448;-44
2022/06/02 04:24:49;;;;;;;148.52;56.15;;;;;;;5.48;100.00;101996.84;4937570;29;20036;-46
2022/06/02 04:27:14;;;;;;;113.50;51.20;;;;;;;5.42;100.00;101993.84;4937780;29;20028;-48
2022/06/02 04:30:03;;;;;;;123.68;53.08;;;;;;;5.44;100.00;101992.28;4937057;29;20083;-45
2022/06/02 04:33:15;;;;;;;111.20;48.38;;;;;;;5.44;100.00;101992.28;4936244;29;20387;-48
2022/06/02 04:35:57;;;;;;;106.68;47.58;;;;;;;5.46;100.00;101990.72;4931592;29;20048;-44
2022/06/02 04:38:42;;;;;;;107.25;48.60;;;;;;;5.47;100.00;101991.63;4937117;29;20391;-45
2022/06/02 04:41:15;;;;;;;106.28;48.35;;;;;;;5.49;100.00;102001.16;4937390;29;20543;-49
2022/06/02 04:44:26;;;;;;;144.85;60.00;;;;;;;5.60;100.00;102007.91;4936799;29;20372;-45
2022/06/02 04:47:05;;;;;;;157.68;64.72;;;;;;;5.71;100.00;102002.66;4927743;29;20039;-47
2022/06/02 04:49:56;;;;;;;165.98;64.43;;;;;;;5.82;100.00;102001.69;4936909;29;20040;-46
2022/06/02 04:52:38;;;;;;;152.40;60.90;;;;;;;5.89;100.00;102014.09;4937040;29;20051;-45
2022/06/02 04:55:29;;;;;;;147.52;60.38;;;;;;;5.94;100.00;102006.75;4937134;29;20110;-49
2022/06/02 04:58:03;;;;;;;185.23;69.07;;;;;;;6.12;100.00;102019.03;4936815;29;20035;-48
2022/06/02 05:00:43;;;;;;;156.82;65.82;;;;;;;6.20;100.00;102008.50;4936865;29;20086;-46
2022/06/02 05:03:42;;;;;;;205.45;78.03;;;;;;;6.31;100.00;102006.66;4936915;29;20060;-45
2022/06/02 05:06:48;;;;;;;208.15;79.00;;;;;;;6.45;100.00;102017.78;4936820;29;20063;-45
2022/06/02 05:09:43;;;;;;;204.55;84.55;;;;;;;6.59;100.00;102017.00;4933710;29;20063;-49
2022/06/02 05:12:17;;;;;;;197.70;79.97;;;;;;;6.68;100.00;102018.41;4928095;29;20395;-48
2022/06/02 05:15:01;;;;;;;184.75;78.05;;;;;;;6.74;100.00;102023.94;4936644;29;20036;-46
2022/06/02 05:17:48;;;;;;;189.00;79.30;;;;;;;6.84;100.00;102023.75;4936779;29;20102;-47
2022/06/02 05:20:33;;;;;;;191.38;81.18;;;;;;;6.97;100.00;102019.38;4936474;29;20416;-47
2022/06/02 05:23:29;;;;;;;191.70;78.03;;;;;;;7.06;100.00;102019.94;4936437;29;20380;-48
2022/06/02 05:25:54;;;;;;;181.02;77.88;;;;;;;7.15;100.00;102014.50;4936174;29;20038;-45
2022/06/02 05:28:35;;;;;;;181.37;74.80;;;;;;;7.24;100.00;102015.97;4936194;29;20031;-44
2022/06/02 05:31:32;;;;;;;182.80;76.75;;;;;;;7.29;100.00;102021.38;4936696;29;20284;-48
2022/06/02 05:34:30;;;;;;;201.93;83.53;;;;;;;7.41;100.00;102023.81;4935364;29;20107;-46
2022/06/02 05:37:01;;;;;;;187.13;78.53;;;;;;;7.52;100.00;102024.47;4936745;29;20043;-46
2022/06/02 05:39:51;;;;;;;203.45;83.70;;;;;;;7.61;100.00;102021.59;4935852;29;20031;-44
2022/06/02 05:42:28;;;;;;;192.90;85.25;;;;;;;7.68;100.00;102024.63;4935865;29;20028;-46
2022/06/02 05:45:05;;;;;;;205.68;86.45;;;;;;;7.77;100.00;102019.13;4936343;29;20118;-47
2022/06/02 05:47:48;;;;;;;209.43;88.38;;;;;;;7.85;100.00;102023.06;4935573;29;20058;-45
2022/06/02 05:50:36;;;;;;;201.38;84.80;;;;;;;7.94;100.00;102027.88;4936281;29;20035;-46
2022/06/02 05:53:13;;;;;;;;;;;;;;;7.99;100.00;102023.88;4936036;29;20027;-47
2022/06/02 05:55:58;;;;;;;184.93;78.30;;;;;;;8.14;100.00;102031.59;4935803;29;20389;-46
2022/06/02 05:58:29;;;;;;;191.63;77.95;;;;;;;8.25;100.00;102032.22;4936118;29;20031;-47
2022/06/02 06:01:07;;;;;;;200.93;78.63;;;;;;;8.35;100.00;102021.69;4935597;29;20030;-46
2022/06/02 06:04:18;;;;;;;187.30;73.55;;;;;;;8.45;100.00;102032.50;4935613;29;20520;-44
2022/06/02 06:06:57;;;;;;;175.68;70.43;;;;;;;8.60;100.00;102035.97;4935693;29;20185;-45
2022/06/02 06:09:44;;;;;;;176.63;71.40;;;;;;;8.72;100.00;102039.22;4935768;29;20035;-45
2022/06/02 06:12:19;;;;;;;181.98;73.05;;;;;;;8.80;100.00;102041.34;4936045;29;20031;-46
2022/06/02 06:15:03;;;;;;;158.30;66.82;;;;;;;8.94;100.00;102045.56;4935341;29;20047;-47
2022/06/02 06:18:06;;;;;;;162.40;68.18;;;;;;;9.04;100.00;102044.41;4935608;29;20024;-48
2022/06/02 06:20:51;;;;;;;149.43;63.92;;;;;;;9.16;100.00;102047.63;4935780;29;20032;-46
2022/06/02 06:23:46;;;;;;;140.32;61.17;;;;;;;9.25;100.00;102052.38;4935291;29;20047;-45
2022/06/02 06:26:51;;;;;;;125.60;54.88;;;;;;;9.38;100.00;102059.09;4925853;29;20047;-47
2022/06/02 06:29:41;;;;;;;129.07;57.83;;;;;;;9.52;100.00;102059.84;4935353;29;20119;-49
2022/06/02 06:32:42;;;;;;;108.20;51.45;;;;;;;9.66;100.00;102064.03;4935716;29;20135;-45
2022/06/02 06:35:14;;;;;;;108.43;50.67;;;;;;;9.75;100.00;102065.28;4923439;29;20047;-45
2022/06/02 06:38:02;;;;;;;92.93;45.47;;;;;;;9.85;100.00;102060.72;4935406;29;20084;-48
2022/06/02 06:40:51;;;;;;;85.82;43.40;;;;;;;9.96;100.00;102066.41;4935517;29;20102;-45
2022/06/02 06:43:39;;;;;;;95.18;47.45;;;;;;;10.09;100.00;102072.22;4934957;29;20039;-48
2022/06/02 06:46:30;;;;;;;92.22;46.47;;;;;;;10.18;100.00;102073.56;4935604;29;20114;-45
2022/06/02 06:49:00;;;;;;;79.60;43.25;;;;;;;10.33;100.00;102077.75;4935441;29;20122;-44
2022/06/02 06:51:43;;;;;;;71.28;37.88;;;;;;;10.43;100.00;102085.16;4935128;29;20031;-45
2022/06/02 06:54:20;;;;;;;73.25;39.13;;;;;;;10.51;100.00;102078.69;4936031;29;20034;-45
2022/06/02 06:56:51;;;;;;;73.15;38.88;;;;;;;10.60;100.00;102083.41;4938866;29;20028;-45
2022/06/02 07:00:01;;;;;;;79.13;41.42;;;;;;;10.66;99.34;102085.41;4939084;29;20039;-45
2022/06/02 07:02:54;;;;;;;71.70;38.10;;;;;;;10.74;98.14;102085.78;4932458;29;20435;-46
2022/06/02 07:05:33;;;;;;;79.97;42.75;;;;;;;10.81;98.57;102088.72;4938435;29;20038;-48
2022/06/02 07:08:17;;;;;;;75.97;41.10;;;;;;;10.91;98.39;102089.16;4939069;29;20040;-48
2022/06/02 07:10:49;;;;;;;86.03;43.97;;;;;;;11.05;99.18;102088.13;4938638;29;20107;-47
2022/06/02 07:13:18;;;;;;;71.40;39.47;;;;;;;11.09;94.90;102094.31;4938985;29;20024;-49
2022/06/02 07:15:59;;;;;;;68.65;37.45;;;;;;;11.20;93.82;102083.69;4938984;29;20032;-49
2022/06/02 07:18:50;;;;;;;69.78;39.28;;;;;;;11.24;95.91;102096.75;4938290;29;20032;-48
2022/06/02 07:21:16;;;;;;;72.50;41.13;;;;;;;11.26;95.11;102098.59;4939083;29;20031;-49
2022/06/02 07:23:54;;;;;;;77.65;40.78;;;;;;;11.29;95.50;102106.47;4938479;29;20056;-47
2022/06/02 07:26:47;;;;;;;75.63;40.47;;;;;;;11.31;95.29;102101.38;4938073;29;20032;-47
2022/06/02 07:29:54;;;;;;;68.75;38.40;;;;;;;11.36;94.65;102105.03;4938729;29;20040;-49
2022/06/02 07:32:47;;;;;;;76.13;40.85;;;;;;;11.57;95.65;102109.44;4938254;29;20031;-48
2022/06/02 07:35:40;;;;;;;64.20;35.00;;;;;;;11.76;94.22;102112.06;4938523;29;20051;-48
2022/06/02 07:38:24;;;;;;;59.22;35.03;;;;;;;11.96;92.34;102114.69;4938734;29;20028;-46
2022/06/02 07:41:04;;;;;;;77.60;42.88;;;;;;;12.28;95.68;102107.44;4938242;29;20480;-46
2022/06/02 07:43:47;;;;;;;75.10;43.22;;;;;;;12.50;95.32;102109.25;4938408;29;20062;-47
2022/06/02 07:46:25;;;;;;;60.47;34.60;;;;;;;12.67;88.80;102112.53;4938020;29;20079;-49
2022/06/02 07:49:00;;;;;;;60.05;30.77;;;;;;;12.77;86.39;102112.09;4938482;29;20039;-49
2022/06/02 07:51:51;;;;;;;42.72;24.45;;;;;;;12.97;89.13;102107.69;4938372;29;20035;-49
2022/06/02 07:54:33;;;;;;;33.30;20.08;;;;;;;13.05;79.96;102113.16;4937716;29;20152;-49
2022/06/02 07:57:20;;;;;;;34.65;20.17;;;;;;;13.03;79.94;102117.44;4938450;29;20024;-49
2022/06/02 08:00:07;;;;;;;31.88;19.63;;;;;;;13.04;78.08;102116.63;4937628;29;20514;-49
2022/06/02 08:02:47;;;;;;;38.53;25.33;;;;;;;13.42;87.48;102114.66;4937821;29;20069;-48
2022/06/02 08:05:29;;;;;;;32.20;21.38;;;;;;;13.76;80.76;102115.03;4937779;29;20420;-49
2022/06/02 08:07:59;;;;;;;32.40;18.85;;;;;;;14.18;75.77;102111.31;4937538;29;20047;-47
2022/06/02 08:11:16;;;;;;;39.50;23.52;;;;;;;14.72;76.81;102108.00;4937864;29;20527;-48
2022/06/02 08:13:50;;;;;;;;;;;;;;;15.06;79.86;102112.56;4926070;29;20058;-44
2022/06/02 08:16:31;;;;;;;24.90;14.95;;;;;;;15.15;66.63;102111.97;4937795;29;19914;-49
2022/06/02 08:19:19;;;;;;;22.60;13.95;;;;;;;14.90;62.21;102105.09;4937901;29;20028;-49
2022/06/02 08:21:49;;;;;;;26.80;14.35;;;;;;;14.63;63.42;102108.56;4927374;29;20091;-48
2022/06/02 08:24:34;;;;;;;23.98;14.50;;;;;;;14.65;68.72;102114.69;4937991;29;20032;-49
2022/06/02 08:27:21;;;;;;;21.55;13.98;;;;;;;14.76;66.50;102113.34;4937600;29;20336;-48
2022/06/02 08:30:00;;;;;;;21.52;12.02;;;;;;;14.89;64.56;102112.03;4937118;29;20056;-48
2022/06/02 08:32:37;;;;;;;18.15;11.93;;;;;;;14.88;61.42;102112.84;4937867;29;20036;-47
2022/06/02 08:35:31;;;;;;;18.70;11.45;;;;;;;14.99;63.47;102105.44;4937028;29;20510;-49
2022/06/02 08:38:23;;;;;;;18.77;13.05;;;;;;;14.96;62.92;102103.63;4937397;29;20032;-49
2022/06/02 08:41:30;;;;;;;23.90;14.73;;;;;;;14.99;63.21;102115.81;4937588;29;20514;-48
2022/06/02 08:44:14;;;;;;;19.75;12.63;;;;;;;14.95;61.45;102124.31;4937303;29;20115;-48
2022/06/02 08:46:55;;;;;;;21.17;12.65;;;;;;;14.97;59.51;102130.44;4937455;29;20035;-49
2022/06/02 08:49:49;;;;;;;20.77;13.60;;;;;;;14.97;57.32;102125.25;4936877;29;20043;-48
2022/06/02 08:53:03;;;;;;;22.52;12.73;;;;;;;15.16;62.86;102124.13;4937086;29;20476;-49
2022/06/02 08:55:50;;;;;;;23.13;14.85;;;;;;;15.15;61.51;102127.53;4937392;29;20023;-44
2022/06/02 08:58:38;;;;;;;25.45;15.60;;;;;;;15.34;62.56;102134.19;4936993;29;20039;-46
2022/06/02 09:01:41;;;;;;;23.63;15.20;;;;;;;15.66;63.03;102126.50;4934119;29;20031;-47
2022/06/02 09:04:31;;;;;;;21.95;14.70;;;;;;;16.06;61.44;102127.66;4936317;29;20040;-49
2022/06/02 09:06:59;;;;;;;18.58;11.95;;;;;;;16.27;55.78;102123.84;4936884;29;20374;-46
2022/06/02 09:09:47;;;;;;;18.65;12.63;;;;;;;16.46;59.29;102127.81;4937101;29;20030;-49
2022/06/02 09:12:40;;;;;;;18.75;12.10;;;;;;;16.64;59.06;102122.19;4936817;29;20050;-48
2022/06/02 09:15:19;;;;;;;20.05;12.43;;;;;;;16.75;57.17;102112.06;4936797;29;20027;-47
2022/06/02 09:17:59;;;;;;;23.30;12.68;;;;;;;16.77;55.44;102119.06;4935731;29;20024;-45
2022/06/02 09:20:43;;;;;;;22.27;13.85;;;;;;;16.83;56.28;102117.44;4936827;29;20032;-49
2022/06/02 09:23:27;;;;;;;23.27;15.20;;;;;;;16.75;54.25;102115.53;4936554;29;20050;-49
2022/06/02 09:26:10;;;;;;;24.33;15.60;;;;;;;16.87;56.30;102119.28;4935962;29;20480;-45
2022/06/02 09:28:59;;;;;;;26.60;15.57;;;;;;;17.00;57.40;102115.28;4936735;29;20040;-48
2022/06/02 09:31:55;;;;;;;26.65;15.75;;;;;;;17.12;57.86;102115.56;4936014;29;20036;-47
2022/06/02 09:34:51;;;;;;;28.33;16.25;;;;;;;17.19;55.77;102120.06;4936416;29;20047;-48
2022/06/02 09:37:34;;;;;;;27.73;16.77;;;;;;;17.18;56.17;102114.81;4936566;29;20074;-48
2022/06/02 09:40:25;;;;;;;27.13;16.85;;;;;;;17.11;56.26;102114.66;4935620;29;20476;-47
2022/06/02 09:43:19;;;;;;;24.13;15.45;;;;;;;17.18;55.42;102109.59;4936725;29;20028;-46
2022/06/02 09:46:09;;;;;;;27.20;16.27;;;;;;;17.44;57.24;102115.38;4935806;29;20114;-48
2022/06/02 09:49:05;;;;;;;24.73;17.27;;;;;;;17.71;55.54;102109.84;4935991;29;20050;-49
2022/06/02 09:51:39;;;;;;;29.85;18.15;;;;;;;18.12;52.61;102110.69;4936199;29;20040;-49
2022/06/02 09:54:38;;;;;;;28.58;18.70;;;;;;;18.37;55.93;102106.75;4935437;29;20058;-49
2022/06/02 10:00:35;;;;;;;28.92;18.58;;;;;;;18.79;50.59;102112.69;4935402;29;20074;-49
2022/06/02 10:03:07;;;;;;;33.67;17.83;;;;;;;19.54;50.08;102115.53;4935923;29;20035;-45
2022/06/02 10:05:58;;;;;;;27.15;17.55;;;;;;;19.97;52.06;102109.94;4935835;29;20484;-45
2022/06/02 10:08:26;;;;;;;27.73;16.70;;;;;;;19.58;46.83;102107.72;4925674;29;20054;-48
2022/06/02 10:11:06;;;;;;;27.27;16.58;;;;;;;19.39;50.60;102117.09;4935846;29;20468;-47
2022/06/02 10:14:26;;;;;;;27.33;15.40;;;;;;;19.44;52.32;102114.50;4935183;29;20464;-47
2022/06/02 10:17:27;;;;;;;21.05;15.10;;;;;;;19.48;47.58;102111.06;4914772;29;20039;-49
2022/06/02 10:20:21;;;;;;;26.80;16.48;;;;;;;20.13;48.26;102108.34;4927458;29;20066;-44
2022/06/02 10:23:11;;;;;;;24.73;15.68;;;;;;;21.44;43.64;102108.47;4935439;29;20071;-45
2022/06/02 10:26:21;;;;;;;25.95;14.30;;;;;;;23.05;43.99;102098.16;4935769;29;20107;-49
2022/06/02 10:29:05;;;;;;;25.15;14.68;;;;;;;24.15;40.82;102095.94;4929595;29;20127;-48
2022/06/02 10:31:36;;;;;;;23.67;14.68;;;;;;;24.09;35.93;102098.63;4935687;29;20028;-48
2022/06/02 10:34:19;;;;;;;17.55;12.77;;;;;;;23.69;40.75;102102.34;4935028;29;20042;-46
2022/06/02 10:37:09;;;;;;;21.95;13.35;;;;;;;23.91;38.45;102097.88;4935244;29;20106;-49
2022/06/02 10:39:43;;;;;;;18.85;11.98;;;;;;;23.82;34.82;102097.88;4935414;29;20369;-45
2022/06/02 10:42:25;;;;;;;17.52;11.23;;;;;;;24.25;38.00;102091.50;4934818;29;20438;-46
2022/06/02 10:44:57;;;;;;;21.65;13.63;;;;;;;24.68;36.21;102096.41;4935604;29;20075;-48
2022/06/02 10:47:59;;;;;;;22.48;14.80;;;;;;;25.91;34.40;102087.91;4935543;29;20044;-46
2022/06/02 10:50:42;;;;;;;20.38;15.00;;;;;;;25.53;35.83;102084.94;4934723;29;20102;-49
2022/06/02 10:53:26;;;;;;;20.65;14.35;;;;;;;25.03;32.68;102086.41;4935417;29;20027;-45
2022/06/02 10:56:29;;;;;;;19.90;15.07;;;;;;;25.67;32.90;102090.03;4935195;29;20032;-48
2022/06/02 10:59:34;;;;;;;19.38;13.88;;;;;;;25.87;35.12;102084.44;4935362;29;20492;-47
2022/06/02 11:02:11;;;;;;;22.40;13.98;;;;;;;26.85;32.04;102075.81;4935428;29;20035;-46
2022/06/02 11:04:58;;;;;;;23.73;16.30;;;;;;;26.77;30.82;102068.03;4935160;29;20171;-49
2022/06/02 11:07:32;;;;;;;20.27;15.27;;;;;;;27.18;32.16;102070.75;4935252;29;20087;-48
2022/06/02 11:10:29;;;;;;;21.60;15.60;;;;;;;27.52;30.96;102075.34;4934661;29;20036;-47
2022/06/02 11:13:33;;;;;;;22.33;15.20;;;;;;;26.55;31.96;102079.88;4935513;29;20027;-50
2022/06/02 11:16:35;;;;;;;19.80;14.65;;;;;;;26.62;32.50;102084.13;4916656;29;20072;-50
2022/06/02 11:19:19;;;;;;;23.92;15.23;;;;;;;26.03;34.39;102081.56;4935284;29;20027;-50
2022/06/02 11:22:05;;;;;;;20.63;15.38;;;;;;;24.49;33.09;102075.47;4935017;29;20051;-49
2022/06/02 11:24:46;;;;;;;21.25;15.35;;;;;;;23.42;35.00;102077.03;4934324;29;20331;-48
2022/06/02 11:27:23;;;;;;;19.90;14.43;;;;;;;23.49;34.38;102078.78;4935151;29;20059;-50
2022/06/02 11:30:04;;;;;;;23.92;15.15;;;;;;;24.29;33.44;102065.09;4935253;29;20444;-48
2022/06/02 11:32:41;;;;;;;24.33;15.18;;;;;;;25.37;32.76;102070.19;4934327;29;20384;-49
2022/06/02 11:35:25;;;;;;;72.20;22.15;;;;;;;26.87;34.47;102066.09;4935096;29;20071;-46
2022/06/02 11:38:37;;;;;;;22.80;13.68;;;;;;;27.83;31.89;102064.06;4934768;29;20074;-50
2022/06/02 11:41:39;;;;;;;20.77;14.82;;;;;;;27.86;31.29;102061.34;4915593;29;20503;-47
2022/06/02 11:44:33;;;;;;;21.80;15.65;;;;;;;27.16;27.97;102072.56;4938648;29;20079;-47
2022/06/02 11:47:12;;;;;;;23.15;17.25;;;;;;;25.29;29.20;102065.88;4938105;29;20051;-48
2022/06/02 11:50:09;;;;;;;20.77;15.40;;;;;;;24.84;32.91;102056.72;4938302;29;20531;-46
2022/06/02 11:52:59;;;;;;;22.15;16.25;;;;;;;25.08;32.62;102058.22;4937740;29;20032;-50
2022/06/02 11:55:43;;;;;;;27.13;17.40;;;;;;;25.27;30.52;102051.81;4938376;29;20035;-45
2022/06/02 11:58:20;;;;;;;19.48;15.25;;;;;;;25.12;31.09;102057.28;4938418;29;20031;-45
2022/06/02 12:01:16;;;;;;;23.30;14.85;;;;;;;24.77;31.67;102053.28;4937672;29;20031;-47
2022/06/02 12:03:55;;;;;;;20.90;13.20;;;;;;;25.87;31.79;102050.13;4938193;29;20031;-49
2022/06/02 12:06:39;;;;;;;21.70;14.75;;;;;;;26.44;31.30;102049.22;4937531;29;20034;-47
2022/06/02 12:09:10;;;;;;;16.05;11.90;;;;;;;26.71;29.17;102043.44;4938101;29;20468;-47
2022/06/02 12:12:03;;;;;;;21.42;13.48;;;;;;;27.11;28.62;102042.66;4937898;29;20383;-46
2022/06/02 12:14:53;;;;;;;16.38;11.63;;;;;;;27.65;28.27;102030.06;4937128;29;20028;-45
2022/06/02 12:17:37;;;;;;;16.52;11.95;;;;;;;28.98;29.13;102031.97;4938118;29;20085;-45
2022/06/02 12:20:25;;;;;;;15.27;10.68;;;;;;;28.88;27.20;102026.94;4937270;29;20482;-49
2022/06/02 12:23:11;;;;;;;15.35;11.25;;;;;;;29.29;25.86;102025.78;4937736;29;20412;-46
2022/06/02 12:26:01;;;;;;;16.98;11.55;;;;;;;30.02;24.72;102024.34;4937731;29;20488;-47
2022/06/02 12:28:56;;;;;;;17.02;12.43;;;;;;;30.04;26.18;102017.19;4936928;29;20047;-47
2022/06/02 12:31:51;;;;;;;16.73;12.77;;;;;;;30.55;24.38;102010.16;4937928;29;20120;-47
2022/06/02 12:34:35;;;;;;;17.53;12.50;;;;;;;30.91;25.55;102008.81;4937279;29;20034;-48
2022/06/02 12:37:06;;;;;;;15.93;10.82;;;;;;;29.58;23.12;102016.03;4937685;29;20319;-50
2022/06/02 12:39:54;;;;;;;17.10;12.88;;;;;;;28.31;25.14;102009.03;4937391;29;20055;-47
2022/06/02 12:42:41;;;;;;;17.35;11.93;;;;;;;28.86;27.61;102007.53;4936967;29;20032;-46